Time;durP1;ratioP1;P1;durP2;ratioP2;P2;SDS_P1;SDS_P2;PMS_P1;PMS_P2;Temp;Humidity;BMP_temperature;BMP_pressure;BME280_temperature;BME280_humidity;BME280_pressure;Samples;Min_cycle;Max_cycle;Signal;HPM_P1;HPM_P2
2021/01/06 05:00:39;;;;;;;1999.90;999.90;;;3.50;99.90;;;;;;5908264;23;20355;-76
2021/01/06 05:03:25;;;;;;;1999.90;999.90;;;3.40;99.90;;;;;;4856811;29;20528;-75
2021/01/06 05:06:04;;;;;;;1999.90;999.90;;;3.30;99.90;;;;;;4861849;29;20265;-75
2021/01/06 05:08:36;;;;;;;1999.90;999.90;;;3.30;99.90;;;;;;4862496;29;20654;-75
2021/01/06 05:11:09;;;;;;;1999.90;999.90;;;3.30;99.90;;;;;;4862489;29;20220;-75
2021/01/06 05:13:42;;;;;;;1999.90;999.90;;;3.40;99.90;;;;;;4862533;29;20249;-75
2021/01/06 05:16:15;;;;;;;1999.90;999.90;;;3.40;99.90;;;;;;4862302;29;20209;-75
2021/01/06 05:18:43;;;;;;;1999.90;999.90;;;3.40;99.90;;;;;;4861525;29;20304;-75
2021/01/06 05:21:15;;;;;;;1999.90;999.90;;;3.40;99.90;;;;;;4860793;29;20677;-74
2021/01/06 05:23:43;;;;;;;1999.90;999.90;;;3.50;99.90;;;;;;4860733;29;20213;-74
2021/01/06 05:26:11;;;;;;;1999.90;999.90;;;3.60;99.90;;;;;;4861469;29;20678;-74
2021/01/06 05:28:38;;;;;;;1999.90;999.90;;;3.40;99.90;;;;;;4861325;29;20201;-75
2021/01/06 05:31:05;;;;;;;1999.90;999.90;;;3.50;99.90;;;;;;4861370;29;20229;-75
2021/01/06 05:33:35;;;;;;;1999.90;999.90;;;3.50;99.90;;;;;;4861747;29;20273;-75
2021/01/06 05:36:03;;;;;;;1999.90;999.90;;;3.40;99.90;;;;;;4861929;29;20213;-76
2021/01/06 05:38:30;;;;;;;1999.90;999.90;;;3.40;99.90;;;;;;4861689;29;20232;-75
2021/01/06 05:40:57;;;;;;;1999.90;999.90;;;3.50;99.90;;;;;;4861845;29;20583;-74
2021/01/06 05:43:43;;;;;;;1999.90;999.90;;;3.60;99.90;;;;;;4861477;29;20627;-74
2021/01/06 05:46:17;;;;;;;1999.90;999.90;;;3.70;99.90;;;;;;4850455;29;20237;-75
2021/01/06 05:48:51;;;;;;;1999.90;999.90;;;3.70;99.90;;;;;;4850425;29;20230;-74
2021/01/06 05:51:25;;;;;;;1999.90;999.90;;;3.70;99.90;;;;;;4847937;29;20281;-76
2021/01/06 05:53:58;;;;;;;1999.90;999.90;;;3.70;99.90;;;;;;4846583;29;20285;-77
2021/01/06 05:56:37;;;;;;;1999.90;999.90;;;3.70;99.90;;;;;;4876803;29;20212;-77
2021/01/06 05:59:17;;;;;;;1999.90;999.90;;;3.50;99.90;;;;;;4862124;29;20257;-74
2021/01/06 06:01:50;;;;;;;1999.90;999.90;;;3.60;99.90;;;;;;4855389;29;20225;-76
2021/01/06 06:04:48;;;;;;;1999.90;999.90;;;3.60;99.90;;;;;;4850148;29;20262;-75
2021/01/06 06:07:23;;;;;;;1999.90;999.90;;;3.70;99.90;;;;;;4849773;29;20240;-74
2021/01/06 06:10:28;;;;;;;1999.90;999.90;;;3.80;99.90;;;;;;4853117;29;20700;-75
2021/01/06 06:13:17;;;;;;;1999.90;999.90;;;3.60;99.90;;;;;;4853270;29;20197;-76
2021/01/06 06:15:59;;;;;;;1999.90;999.90;;;3.60;99.90;;;;;;4852289;29;20201;-76
2021/01/06 06:18:48;;;;;;;1999.90;999.90;;;3.60;99.90;;;;;;4842860;29;20225;-74
2021/01/06 06:21:36;;;;;;;1999.90;999.90;;;3.60;99.90;;;;;;4843270;29;20267;-76
2021/01/06 06:24:25;;;;;;;1999.90;999.90;;;3.80;99.90;;;;;;4843721;29;20667;-77
2021/01/06 06:27:04;;;;;;;1999.90;999.90;;;3.50;99.90;;;;;;4848100;29;20625;-74
2021/01/06 06:29:36;;;;;;;1999.90;999.90;;;3.40;99.90;;;;;;4840783;29;20213;-74
2021/01/06 06:32:05;;;;;;;1999.90;999.90;;;3.50;99.90;;;;;;4843695;29;20229;-74
2021/01/06 06:34:34;;;;;;;1999.90;999.90;;;3.40;99.90;;;;;;4842498;29;20213;-74
2021/01/06 06:37:09;;;;;;;1999.90;999.90;;;3.40;99.90;;;;;;4841750;29;20217;-74
2021/01/06 06:39:40;;;;;;;1999.90;999.90;;;3.30;99.90;;;;;;4841866;29;20277;-74
2021/01/06 06:42:27;;;;;;;1999.90;999.90;;;3.40;99.90;;;;;;4843010;29;20254;-74
2021/01/06 06:44:58;;;;;;;1999.90;999.90;;;3.50;99.90;;;;;;4843145;29;20221;-74
2021/01/06 06:47:42;;;;;;;1999.90;999.90;;;3.40;99.90;;;;;;4842798;29;20246;-74
2021/01/06 06:50:51;;;;;;;1999.90;999.90;;;3.60;99.90;;;;;;4842742;29;20209;-74
2021/01/06 06:53:30;;;;;;;1999.90;999.90;;;3.60;99.90;;;;;;4804218;29;20218;-74
2021/01/06 06:56:09;;;;;;;1999.90;999.90;;;3.70;99.90;;;;;;4804138;29;20672;-74
2021/01/06 06:58:49;;;;;;;1999.90;999.90;;;3.60;99.90;;;;;;4829797;29;20245;-74
2021/01/06 07:01:20;;;;;;;1999.90;999.90;;;3.70;99.90;;;;;;4842488;29;20237;-74
2021/01/06 07:03:56;;;;;;;1999.90;999.90;;;3.60;99.90;;;;;;4842668;29;20538;-74
2021/01/06 07:06:25;;;;;;;1999.90;999.90;;;3.60;99.90;;;;;;4842639;29;20210;-74
2021/01/06 07:08:54;;;;;;;1999.90;999.90;;;3.60;99.90;;;;;;4842184;29;20582;-74
2021/01/06 07:11:29;;;;;;;1999.90;999.90;;;3.70;99.90;;;;;;4842631;29;20308;-74
2021/01/06 07:14:07;;;;;;;1999.90;999.90;;;3.70;99.90;;;;;;4842463;29;20265;-74
2021/01/06 07:16:45;;;;;;;1999.90;999.90;;;3.80;99.90;;;;;;4842373;29;20674;-74
2021/01/06 07:19:21;;;;;;;1999.90;999.90;;;3.70;99.90;;;;;;4841939;29;20315;-74
2021/01/06 07:21:58;;;;;;;1999.90;999.90;;;3.60;99.90;;;;;;4842358;29;20229;-74
2021/01/06 07:24:27;;;;;;;1999.90;999.90;;;3.50;99.90;;;;;;4842342;29;20220;-74
2021/01/06 07:26:57;;;;;;;1999.90;999.90;;;3.60;99.90;;;;;;4842269;29;20266;-74
2021/01/06 07:29:31;;;;;;;1999.90;999.90;;;3.60;99.90;;;;;;4841964;29;20209;-74
2021/01/06 07:32:02;;;;;;;1999.90;999.90;;;3.70;99.90;;;;;;4841961;29;20229;-74
2021/01/06 07:34:37;;;;;;;1999.90;999.90;;;3.70;99.90;;;;;;4842044;29;20209;-74
2021/01/06 07:37:06;;;;;;;1999.90;999.90;;;3.80;99.90;;;;;;4842199;29;20213;-74
2021/01/06 07:39:36;;;;;;;1999.90;999.90;;;3.90;99.90;;;;;;4841649;29;20229;-74
2021/01/06 07:42:06;;;;;;;1999.90;999.90;;;4.00;99.90;;;;;;4841783;29;20703;-74
2021/01/06 07:44:37;;;;;;;1999.90;999.90;;;3.90;99.90;;;;;;4841823;29;20262;-74
2021/01/06 07:47:15;;;;;;;1999.90;999.90;;;3.80;99.90;;;;;;4842104;29;20213;-74
2021/01/06 07:49:50;;;;;;;1999.90;999.90;;;3.70;99.90;;;;;;4841695;29;20216;-74
2021/01/06 07:52:34;;;;;;;1999.90;999.90;;;3.70;99.90;;;;;;4842293;29;20289;-75
2021/01/06 07:55:17;;;;;;;1999.90;999.90;;;3.90;99.90;;;;;;4841759;29;20209;-74
2021/01/06 07:57:47;;;;;;;1999.90;999.90;;;3.80;99.90;;;;;;4841451;29;20679;-74
2021/01/06 08:00:17;;;;;;;1999.90;999.90;;;3.80;99.90;;;;;;4841480;29;20261;-74
2021/01/06 08:02:55;;;;;;;1999.90;999.90;;;4.00;99.90;;;;;;4841629;29;20217;-74
2021/01/06 08:05:26;;;;;;;1999.90;999.90;;;3.90;99.90;;;;;;4841538;29;20639;-74
2021/01/06 08:08:09;;;;;;;1999.90;999.90;;;3.90;99.90;;;;;;4841587;29;20254;-74
2021/01/06 08:10:39;;;;;;;1999.90;999.90;;;3.90;99.90;;;;;;4841560;29;20305;-74
2021/01/06 08:13:21;;;;;;;1999.90;999.90;;;4.00;99.90;;;;;;4841642;29;20209;-74
2021/01/06 08:15:50;;;;;;;1999.90;999.90;;;4.00;99.90;;;;;;4841284;29;20258;-75
2021/01/06 08:18:40;;;;;;;1999.90;999.90;;;4.20;99.90;;;;;;4841100;29;20826;-74
2021/01/06 08:21:15;;;;;;;1999.90;999.90;;;4.20;99.90;;;;;;4841216;29;20229;-74
2021/01/06 08:24:12;;;;;;;1999.90;999.90;;;4.10;99.90;;;;;;4841201;29;20683;-74
2021/01/06 08:26:48;;;;;;;1999.90;999.90;;;4.20;99.90;;;;;;4841569;29;20628;-74
2021/01/06 08:29:21;;;;;;;1999.90;999.90;;;4.10;99.90;;;;;;4841154;29;20209;-74
2021/01/06 08:31:50;;;;;;;1999.90;999.90;;;4.00;99.90;;;;;;4841257;29;20233;-74
2021/01/06 08:34:24;;;;;;;1999.90;999.90;;;4.10;99.90;;;;;;4840574;29;20214;-74
2021/01/06 08:37:03;;;;;;;1999.90;999.90;;;3.90;99.90;;;;;;4841291;29;20213;-74
2021/01/06 08:39:32;;;;;;;1999.90;999.90;;;3.90;99.90;;;;;;4840962;29;20232;-74
2021/01/06 08:42:10;;;;;;;1999.90;999.90;;;4.00;99.90;;;;;;4841051;29;20738;-74
2021/01/06 08:44:41;;;;;;;1999.90;999.90;;;3.90;99.90;;;;;;4841211;29;20217;-74
2021/01/06 08:47:11;;;;;;;1999.90;999.90;;;3.90;99.90;;;;;;4841116;29;20296;-74
2021/01/06 08:49:45;;;;;;;1999.90;999.90;;;3.90;99.90;;;;;;4841044;29;20202;-74
2021/01/06 08:52:25;;;;;;;1999.90;999.90;;;3.90;99.90;;;;;;4841092;29;20774;-74
2021/01/06 08:55:01;;;;;;;1999.90;999.90;;;3.90;99.90;;;;;;4841088;29;20209;-74
2021/01/06 08:57:32;;;;;;;1999.90;999.90;;;4.00;99.90;;;;;;4841254;29;20193;-74
2021/01/06 09:00:14;;;;;;;1999.90;999.90;;;4.10;99.90;;;;;;4840911;29;20232;-74
2021/01/06 09:02:46;;;;;;;1999.90;999.90;;;4.10;99.90;;;;;;4841207;29;20244;-74
2021/01/06 09:05:37;;;;;;;1999.90;999.90;;;4.20;99.90;;;;;;4841042;29;20213;-74
2021/01/06 09:08:11;;;;;;;1999.90;999.90;;;3.90;99.90;;;;;;4841010;29;20217;-74
2021/01/06 09:10:43;;;;;;;1999.90;999.90;;;4.10;99.90;;;;;;4840843;29;20286;-74
2021/01/06 09:13:14;;;;;;;1999.90;999.90;;;4.10;99.90;;;;;;4841005;29;20917;-74
2021/01/06 09:15:47;;;;;;;1999.90;999.90;;;4.10;99.90;;;;;;4840899;29;20214;-74
2021/01/06 09:18:18;;;;;;;1999.90;999.90;;;4.20;99.90;;;;;;4840509;29;20217;-74
2021/01/06 09:20:59;;;;;;;1999.90;999.90;;;4.10;99.90;;;;;;4840965;29;20233;-74
2021/01/06 09:23:26;;;;;;;1999.90;999.90;;;4.00;99.90;;;;;;4841064;29;20217;-74
2021/01/06 09:25:53;;;;;;;1999.90;999.90;;;4.10;99.90;;;;;;4840799;29;20212;-74
2021/01/06 09:28:21;;;;;;;1999.90;999.90;;;4.00;99.90;;;;;;4841027;29;20266;-74
2021/01/06 09:30:49;;;;;;;1999.90;999.90;;;4.00;99.90;;;;;;4840580;29;20229;-74
2021/01/06 09:33:22;;;;;;;1999.90;999.90;;;4.00;99.90;;;;;;4840999;29;20213;-74
2021/01/06 09:35:49;;;;;;;1999.90;999.90;;;3.90;99.90;;;;;;4840949;29;20471;-74
2021/01/06 09:38:25;;;;;;;1999.90;999.90;;;3.90;99.90;;;;;;4840545;29;20213;-74
2021/01/06 09:40:52;;;;;;;1999.90;999.90;;;3.90;99.90;;;;;;4840572;29;20722;-74
2021/01/06 09:43:27;;;;;;;1999.90;999.90;;;3.80;99.90;;;;;;4840873;29;20210;-74
2021/01/06 09:45:54;;;;;;;1999.90;999.90;;;3.80;99.90;;;;;;4842030;29;20212;-74
2021/01/06 09:48:25;;;;;;;1999.90;999.90;;;3.80;99.90;;;;;;4843923;29;20209;-74
2021/01/06 09:50:56;;;;;;;1999.90;999.90;;;3.70;99.90;;;;;;4843786;29;20309;-74
2021/01/06 09:53:26;;;;;;;1999.90;999.90;;;3.70;99.90;;;;;;4843819;29;20214;-74
2021/01/06 09:55:55;;;;;;;1999.90;999.90;;;3.80;99.90;;;;;;4844017;29;20258;-74
2021/01/06 09:58:29;;;;;;;1999.90;999.90;;;3.90;99.90;;;;;;4843569;29;20274;-74
2021/01/06 10:01:06;;;;;;;1999.90;999.90;;;3.80;99.90;;;;;;4843546;29;20232;-74
2021/01/06 10:03:37;;;;;;;1999.90;999.90;;;3.80;99.90;;;;;;4843756;29;20209;-74
2021/01/06 10:06:15;;;;;;;1999.90;999.90;;;3.70;99.90;;;;;;4843529;29;20209;-74
2021/01/06 10:08:46;;;;;;;1999.90;999.90;;;3.70;99.90;;;;;;4843622;29;20213;-74
2021/01/06 10:11:28;;;;;;;1999.90;999.90;;;3.80;99.90;;;;;;4843402;29;20256;-74
2021/01/06 10:14:32;;;;;;;1999.90;999.90;;;3.80;99.90;;;;;;4843590;29;20217;-74
2021/01/06 10:17:03;;;;;;;1999.90;999.90;;;3.80;99.90;;;;;;4823411;29;20213;-74
2021/01/06 10:19:39;;;;;;;1999.90;999.90;;;3.80;99.90;;;;;;4843266;29;20289;-74
2021/01/06 10:22:31;;;;;;;1999.90;999.90;;;3.70;99.90;;;;;;4843384;29;20285;-74
2021/01/06 10:25:13;;;;;;;1999.90;999.90;;;3.80;99.90;;;;;;4843747;29;20213;-74
2021/01/06 10:27:52;;;;;;;1999.90;999.90;;;3.80;99.90;;;;;;4843272;29;20218;-74
2021/01/06 10:30:22;;;;;;;1999.90;999.90;;;3.80;99.90;;;;;;4843257;29;20201;-74
2021/01/06 10:32:51;;;;;;;1999.90;999.90;;;3.80;99.90;;;;;;4843229;29;20217;-74
2021/01/06 10:35:36;;;;;;;1999.90;999.90;;;3.80;99.90;;;;;;4843148;29;20265;-75
2021/01/06 10:38:21;;;;;;;1999.90;999.90;;;3.80;99.90;;;;;;4843460;29;20273;-75
2021/01/06 10:40:49;;;;;;;1999.90;999.90;;;3.60;99.90;;;;;;4843061;29;20286;-75
2021/01/06 10:43:50;;;;;;;1999.90;999.90;;;3.60;99.90;;;;;;4842961;29;20724;-75
2021/01/06 10:46:38;;;;;;;1999.90;999.90;;;3.60;99.90;;;;;;4804248;29;20214;-75
2021/01/06 10:49:06;;;;;;;1999.90;999.90;;;3.60;99.90;;;;;;4803917;29;20214;-75
2021/01/06 10:52:14;;;;;;;1999.90;999.90;;;3.60;99.90;;;;;;4832246;29;20656;-75
2021/01/06 10:54:46;;;;;;;1999.90;999.90;;;3.60;99.90;;;;;;4842792;29;20220;-75
2021/01/06 10:57:23;;;;;;;1999.90;999.90;;;3.70;99.90;;;;;;4842214;29;20461;-75
2021/01/06 11:00:13;;;;;;;1999.90;999.90;;;3.80;99.90;;;;;;4842499;29;20715;-75
2021/01/06 11:03:20;;;;;;;1999.90;999.90;;;3.70;99.90;;;;;;4842763;29;20293;-75
2021/01/06 11:06:02;;;;;;;1999.90;999.90;;;3.70;99.90;;;;;;4836316;29;20209;-75
2021/01/06 11:08:46;;;;;;;1999.90;999.90;;;3.70;99.90;;;;;;4842172;29;20257;-75
2021/01/06 11:11:43;;;;;;;1999.90;999.90;;;3.70;99.90;;;;;;4842625;29;20245;-75
2021/01/06 11:14:39;;;;;;;1999.90;999.90;;;3.60;99.90;;;;;;4835005;29;20205;-75
2021/01/06 11:17:27;;;;;;;1999.90;999.90;;;3.50;99.90;;;;;;4841897;29;20213;-75
2021/01/06 11:19:57;;;;;;;1999.90;999.90;;;3.40;99.90;;;;;;4842148;29;20225;-75
2021/01/06 11:22:42;;;;;;;1999.90;999.90;;;3.30;99.90;;;;;;4842063;29;20229;-74
2021/01/06 11:25:35;;;;;;;1999.90;999.90;;;3.30;99.90;;;;;;4842153;29;20555;-74
2021/01/06 11:28:29;;;;;;;1999.90;999.90;;;3.30;99.90;;;;;;4842093;29;20221;-75
2021/01/06 11:31:21;;;;;;;1999.90;999.90;;;3.30;99.90;;;;;;4842062;29;20230;-74
2021/01/06 11:33:50;;;;;;;1999.90;999.90;;;3.40;99.90;;;;;;4843222;29;20683;-75
2021/01/06 11:36:39;;;;;;;1999.90;999.90;;;3.40;99.90;;;;;;4843448;29;20262;-74
2021/01/06 11:39:09;;;;;;;1999.90;999.90;;;3.30;99.90;;;;;;4840060;29;20249;-74
2021/01/06 11:42:01;;;;;;;1999.90;999.90;;;3.20;99.90;;;;;;4841740;29;20308;-74
2021/01/06 11:44:36;;;;;;;1999.90;999.90;;;3.30;99.90;;;;;;4842261;29;20205;-74
2021/01/06 11:47:20;;;;;;;1999.90;999.90;;;3.30;99.90;;;;;;4841973;29;20209;-74
2021/01/06 11:49:52;;;;;;;1999.90;999.90;;;3.30;99.90;;;;;;4841725;29;20209;-74
2021/01/06 11:52:38;;;;;;;1999.90;999.90;;;3.30;99.90;;;;;;4841663;29;20290;-74
2021/01/06 11:55:36;;;;;;;1999.90;999.90;;;3.20;99.90;;;;;;4841865;29;20213;-74
2021/01/06 11:58:55;;;;;;;1999.90;999.90;;;3.30;99.90;;;;;;4841548;29;20266;-74
2021/01/06 12:01:54;;;;;;;1999.90;999.90;;;3.40;99.90;;;;;;4841960;29;20248;-76
2021/01/06 12:04:49;;;;;;;1999.90;999.90;;;3.40;99.90;;;;;;4841542;29;20209;-77
2021/01/06 12:07:34;;;;;;;1999.90;999.90;;;3.40;99.90;;;;;;4841650;29;20242;-76
2021/01/06 12:10:19;;;;;;;1999.90;999.90;;;3.30;99.90;;;;;;4840813;29;20258;-75
2021/01/06 12:13:05;;;;;;;1999.90;999.90;;;3.30;99.90;;;;;;4841473;29;20269;-77
2021/01/06 12:15:52;;;;;;;1999.90;999.90;;;3.30;99.90;;;;;;4841679;29;20209;-77
2021/01/06 12:18:34;;;;;;;1999.90;999.90;;;3.20;99.90;;;;;;4841211;29;20213;-75
2021/01/06 12:21:02;;;;;;;1999.90;999.90;;;3.20;99.90;;;;;;4841360;29;20281;-77
2021/01/06 12:23:42;;;;;;;1999.90;999.90;;;3.20;99.90;;;;;;4841196;29;20715;-75
2021/01/06 12:26:38;;;;;;;1999.90;999.90;;;3.30;99.90;;;;;;4841223;29;20224;-76
2021/01/06 12:29:10;;;;;;;1999.90;999.90;;;3.30;99.90;;;;;;4841078;29;20225;-76
2021/01/06 12:31:46;;;;;;;1999.90;999.90;;;3.30;99.90;;;;;;4841744;29;20569;-76
2021/01/06 12:34:16;;;;;;;1999.90;999.90;;;3.50;99.90;;;;;;4841178;29;20228;-75
2021/01/06 12:37:04;;;;;;;1999.90;999.90;;;3.50;99.90;;;;;;4841419;29;20271;-75
2021/01/06 12:39:35;;;;;;;1999.90;999.90;;;3.60;99.90;;;;;;4841003;29;20651;-76
2021/01/06 12:42:25;;;;;;;1999.90;999.90;;;3.50;99.90;;;;;;4841139;29;20286;-75
2021/01/06 12:45:05;;;;;;;1999.90;999.90;;;3.60;99.90;;;;;;4841164;29;20273;-75
2021/01/06 12:47:40;;;;;;;1999.90;999.90;;;3.50;99.90;;;;;;4841171;29;20221;-75
2021/01/06 12:50:16;;;;;;;1999.90;999.90;;;3.50;99.90;;;;;;4841128;29;20217;-77
2021/01/06 12:52:47;;;;;;;1999.90;999.90;;;3.50;99.90;;;;;;4840891;29;20686;-77
2021/01/06 12:55:25;;;;;;;1999.90;999.90;;;3.50;99.90;;;;;;4841225;29;20293;-76
2021/01/06 12:57:56;;;;;;;1999.90;999.90;;;3.70;99.90;;;;;;4840705;29;20687;-75
2021/01/06 13:00:38;;;;;;;1999.90;999.90;;;3.70;99.90;;;;;;4840927;29;20294;-76
2021/01/06 13:03:29;;;;;;;1999.90;999.90;;;3.70;99.90;;;;;;4840754;29;20213;-76
2021/01/06 13:06:04;;;;;;;1999.90;999.90;;;3.60;99.90;;;;;;4841178;29;20612;-76
2021/01/06 13:08:37;;;;;;;1999.90;999.90;;;3.70;99.90;;;;;;4840830;29;20261;-76
2021/01/06 13:11:16;;;;;;;1999.90;999.90;;;3.70;99.90;;;;;;4840875;29;20282;-76
2021/01/06 13:13:46;;;;;;;1999.90;999.90;;;3.70;99.90;;;;;;4840768;29;20212;-75
2021/01/06 13:16:24;;;;;;;1999.90;999.90;;;3.70;99.90;;;;;;4841036;29;20254;-76
2021/01/06 13:19:18;;;;;;;1999.90;999.90;;;3.60;99.90;;;;;;4840500;29;20731;-76
2021/01/06 13:22:00;;;;;;;1999.90;999.90;;;3.40;99.90;;;;;;4843440;29;20227;-76
2021/01/06 13:24:31;;;;;;;1999.90;999.90;;;3.50;99.90;;;;;;4844481;29;20205;-76
2021/01/06 13:27:03;;;;;;;1999.90;999.90;;;3.40;99.90;;;;;;4844487;29;20262;-76
2021/01/06 13:29:37;;;;;;;1999.90;999.90;;;3.50;99.90;;;;;;4844021;29;20205;-76
2021/01/06 13:32:13;;;;;;;1999.90;999.90;;;3.70;99.90;;;;;;4844202;29;20241;-76
2021/01/06 13:34:47;;;;;;;1999.90;999.90;;;3.60;99.90;;;;;;4844280;29;20273;-77
2021/01/06 13:37:33;;;;;;;1999.90;999.90;;;3.70;99.90;;;;;;4844332;29;20213;-76
2021/01/06 13:40:14;;;;;;;1999.90;999.90;;;3.90;99.90;;;;;;4843835;29;20281;-76
2021/01/06 13:43:14;;;;;;;1999.90;999.90;;;3.90;99.90;;;;;;4843911;29;20220;-77
2021/01/06 13:45:52;;;;;;;1999.90;999.90;;;3.90;99.90;;;;;;4837504;29;20582;-76
2021/01/06 13:48:56;;;;;;;1999.90;999.90;;;3.80;99.90;;;;;;4843635;29;20213;-77
2021/01/06 13:51:27;;;;;;;1999.90;999.90;;;3.80;99.90;;;;;;4843976;29;20228;-76
2021/01/06 13:54:00;;;;;;;1999.90;999.90;;;3.80;99.90;;;;;;4843617;29;20803;-76
2021/01/06 13:56:43;;;;;;;1999.90;999.90;;;3.80;99.90;;;;;;4843813;29;20214;-77
2021/01/06 13:59:25;;;;;;;1999.90;999.90;;;3.70;99.90;;;;;;4843358;29;20269;-76
2021/01/06 14:01:58;;;;;;;1999.90;999.90;;;3.70;99.90;;;;;;4842849;29;20324;-76
2021/01/06 14:04:28;;;;;;;1999.90;999.90;;;3.60;99.90;;;;;;4843627;29;20209;-76
2021/01/06 14:07:01;;;;;;;1999.90;999.90;;;3.60;99.90;;;;;;4843517;29;20839;-76
2021/01/06 14:09:55;;;;;;;1999.90;999.90;;;3.60;99.90;;;;;;4843261;29;20213;-76
2021/01/06 14:13:09;;;;;;;1999.90;999.90;;;3.60;99.90;;;;;;4843666;29;20236;-75
2021/01/06 14:16:26;;;;;;;1999.90;999.90;;;3.60;99.90;;;;;;4843319;29;20266;-76
2021/01/06 14:19:19;;;;;;;1999.90;999.90;;;3.60;99.90;;;;;;4843259;29;20213;-76
2021/01/06 14:21:53;;;;;;;1999.90;999.90;;;3.70;99.90;;;;;;4858624;29;20221;-76
2021/01/06 14:24:25;;;;;;;1999.90;999.90;;;3.80;99.90;;;;;;4862549;29;20261;-75
2021/01/06 14:27:25;;;;;;;1999.90;999.90;;;4.00;99.90;;;;;;4862748;29;20227;-79
2021/01/06 14:30:04;;;;;;;1999.90;999.90;;;4.10;99.90;;;;;;4845557;29;20213;-79
2021/01/06 14:32:45;;;;;;;1999.90;999.90;;;4.10;99.90;;;;;;4863755;29;20256;-80
2021/01/06 14:35:25;;;;;;;1999.90;999.90;;;4.10;99.90;;;;;;4851149;29;20223;-78
2021/01/06 14:38:26;;;;;;;1999.90;999.90;;;3.90;99.90;;;;;;4856567;29;20201;-76
2021/01/06 14:41:25;;;;;;;1999.90;999.90;;;3.90;99.90;;;;;;4847000;29;20609;-77
2021/01/06 14:44:01;;;;;;;1999.90;999.90;;;3.80;99.90;;;;;;4853392;29;20660;-77
2021/01/06 14:46:41;;;;;;;1999.90;999.90;;;3.60;99.90;;;;;;4852395;29;20675;-77
2021/01/06 14:49:14;;;;;;;1999.90;999.90;;;3.50;99.90;;;;;;4851700;29;20257;-78
2021/01/06 14:51:59;;;;;;;1999.90;999.90;;;3.50;99.90;;;;;;4853929;29;20233;-79
2021/01/06 14:54:54;;;;;;;1999.90;999.90;;;3.40;99.90;;;;;;4855819;29;20611;-80
2021/01/06 14:57:39;;;;;;;1999.90;999.90;;;3.50;99.90;;;;;;4852747;29;20258;-79
2021/01/06 15:00:23;;;;;;;1999.90;999.90;;;3.40;99.90;;;;;;4843349;29;20672;-79
2021/01/06 15:03:18;;;;;;;1999.90;999.90;;;3.50;99.90;;;;;;4854314;29;20238;-81
2021/01/06 15:05:53;;;;;;;1999.90;999.90;;;3.40;99.90;;;;;;4855379;29;20261;-80
2021/01/06 15:08:23;;;;;;;1999.90;999.90;;;3.50;99.90;;;;;;4852957;29;20208;-77
2021/01/06 15:11:10;;;;;;;1999.90;999.90;;;3.70;99.90;;;;;;4849789;29;20654;-77
2021/01/06 15:13:40;;;;;;;1999.90;999.90;;;3.60;99.90;;;;;;4849390;29;20679;-75
2021/01/06 15:16:10;;;;;;;1999.90;999.90;;;3.50;99.90;;;;;;4851492;29;20205;-78
2021/01/06 15:18:37;;;;;;;1999.90;999.90;;;3.50;99.90;;;;;;4851479;29;20235;-77
2021/01/06 15:21:17;;;;;;;1999.90;999.90;;;3.60;99.90;;;;;;4855191;29;20233;-78
2021/01/06 15:23:48;;;;;;;1999.90;999.90;;;3.50;99.90;;;;;;4852030;29;20201;-79
2021/01/06 15:26:38;;;;;;;1999.90;999.90;;;3.50;99.90;;;;;;4852209;29;20200;-75
2021/01/06 15:29:13;;;;;;;1999.90;999.90;;;3.50;99.90;;;;;;4852512;29;20201;-76
2021/01/06 15:31:42;;;;;;;1999.90;999.90;;;3.50;99.90;;;;;;4860635;29;20721;-76
2021/01/06 15:34:17;;;;;;;1999.90;999.90;;;3.70;99.90;;;;;;4851625;29;20674;-75
2021/01/06 15:36:45;;;;;;;1999.90;999.90;;;3.60;99.90;;;;;;4852424;29;20200;-75
2021/01/06 15:39:20;;;;;;;1999.90;999.90;;;3.50;99.90;;;;;;4853666;29;20201;-76
2021/01/06 15:41:50;;;;;;;1999.90;999.90;;;3.50;99.90;;;;;;4860271;29;20228;-75
2021/01/06 15:44:28;;;;;;;1999.90;999.90;;;3.60;99.90;;;;;;4857386;29;20207;-75
2021/01/06 15:46:57;;;;;;;1999.90;999.90;;;3.60;99.90;;;;;;4860173;29;20200;-77
2021/01/06 15:49:27;;;;;;;1999.90;999.90;;;3.70;99.90;;;;;;4860140;29;20216;-75
2021/01/06 15:52:06;;;;;;;1999.90;999.90;;;3.70;99.90;;;;;;4861103;29;20225;-76
2021/01/06 15:54:33;;;;;;;1999.90;999.90;;;3.80;99.90;;;;;;4854968;29;20209;-77
2021/01/06 15:57:04;;;;;;;1999.90;999.90;;;3.90;99.90;;;;;;4856375;29;20249;-77
2021/01/06 15:59:33;;;;;;;1999.90;999.90;;;4.00;99.90;;;;;;4855300;29;20193;-78
2021/01/06 16:02:00;;;;;;;1999.90;999.90;;;3.90;99.90;;;;;;4862268;29;20228;-77
2021/01/06 16:04:35;;;;;;;1999.90;999.90;;;3.80;99.90;;;;;;4862569;29;20234;-78
2021/01/06 16:07:11;;;;;;;1999.90;999.90;;;3.70;99.90;;;;;;4861670;29;20205;-77
2021/01/06 16:09:39;;;;;;;1999.90;999.90;;;3.80;99.90;;;;;;4861641;29;20193;-77
2021/01/06 16:12:14;;;;;;;1999.90;999.90;;;3.80;99.90;;;;;;4861314;29;20631;-77
2021/01/06 16:14:44;;;;;;;1999.90;999.90;;;3.80;99.90;;;;;;4862697;29;20268;-77
2021/01/06 16:17:15;;;;;;;1999.90;999.90;;;3.70;99.90;;;;;;4861340;29;20729;-77
2021/01/06 16:19:45;;;;;;;1999.90;999.90;;;3.80;99.90;;;;;;4859974;29;20225;-76
2021/01/06 16:22:25;;;;;;;1999.90;999.90;;;3.80;99.90;;;;;;4858143;29;20225;-78
2021/01/06 16:24:53;;;;;;;1999.90;999.90;;;3.80;99.90;;;;;;4864410;29;20642;-78
2021/01/06 16:27:25;;;;;;;1999.90;999.90;;;3.90;99.90;;;;;;4862285;29;20206;-77
2021/01/06 16:30:01;;;;;;;1999.90;999.90;;;3.90;99.90;;;;;;4861937;29;20200;-76
2021/01/06 16:32:30;;;;;;;1999.90;999.90;;;3.70;99.90;;;;;;4858583;29;20232;-76
2021/01/06 16:35:04;;;;;;;1999.90;999.90;;;3.70;99.90;;;;;;4854944;29;20228;-77
2021/01/06 16:37:34;;;;;;;1999.90;999.90;;;3.80;99.90;;;;;;4856958;29;20204;-77
2021/01/06 16:40:15;;;;;;;1999.90;999.90;;;3.70;99.90;;;;;;4859815;29;20216;-76
2021/01/06 16:42:51;;;;;;;1999.90;999.90;;;3.80;99.90;;;;;;4859564;29;20666;-75
2021/01/06 16:45:20;;;;;;;1999.90;999.90;;;3.80;99.90;;;;;;4859783;29;20257;-76
2021/01/06 16:47:50;;;;;;;1999.90;999.90;;;3.70;99.90;;;;;;4851072;29;20209;-77
2021/01/06 16:50:30;;;;;;;1999.90;999.90;;;3.70;99.90;;;;;;4841911;29;20741;-77
2021/01/06 16:52:59;;;;;;;1999.90;999.90;;;3.60;99.90;;;;;;4852065;29;20208;-77
2021/01/06 16:55:30;;;;;;;1999.90;999.90;;;3.50;99.90;;;;;;4861018;29;20917;-77
2021/01/06 16:58:08;;;;;;;1999.90;999.90;;;3.50;99.90;;;;;;4863913;29;20196;-76
2021/01/06 17:00:38;;;;;;;1999.90;999.90;;;3.60;99.90;;;;;;4861338;29;20236;-76
2021/01/06 17:03:12;;;;;;;1999.90;999.90;;;3.50;99.90;;;;;;4862635;29;20612;-79
2021/01/06 17:05:40;;;;;;;1999.90;999.90;;;3.40;99.90;;;;;;4865421;29;20603;-77
2021/01/06 17:08:15;;;;;;;1999.90;999.90;;;3.40;99.90;;;;;;4864326;29;20753;-77
2021/01/06 17:10:42;;;;;;;1999.90;999.90;;;3.40;99.90;;;;;;4866052;29;20256;-80
2021/01/06 17:13:12;;;;;;;1999.90;999.90;;;3.30;99.90;;;;;;4865933;29;20261;-79
2021/01/06 17:15:42;;;;;;;1999.90;999.90;;;3.30;99.90;;;;;;4866793;29;20209;-79
2021/01/06 17:18:20;;;;;;;1999.90;999.90;;;3.30;99.90;;;;;;4875173;29;20693;-78
2021/01/06 17:20:52;;;;;;;1999.90;999.90;;;3.30;99.90;;;;;;4881589;29;20250;-77
2021/01/06 17:23:21;;;;;;;1999.90;999.90;;;3.30;99.90;;;;;;4882480;29;20212;-80
2021/01/06 17:25:50;;;;;;;1999.90;999.90;;;3.20;99.90;;;;;;4881856;29;20211;-77
2021/01/06 17:28:23;;;;;;;1999.90;999.90;;;3.20;99.90;;;;;;4880736;29;20689;-76
2021/01/06 17:30:50;;;;;;;1999.90;999.90;;;3.10;99.90;;;;;;4879596;29;20227;-77
2021/01/06 17:33:20;;;;;;;1999.90;999.90;;;3.20;99.90;;;;;;4865960;29;20300;-78
2021/01/06 17:35:48;;;;;;;1999.90;999.90;;;3.20;99.90;;;;;;4860549;29;20205;-78
2021/01/06 17:38:16;;;;;;;1999.90;999.90;;;3.20;99.90;;;;;;4860314;29;20207;-77
2021/01/06 17:40:49;;;;;;;1999.90;999.90;;;3.10;99.90;;;;;;4842168;29;20743;-76
2021/01/06 17:43:17;;;;;;;1999.90;999.90;;;3.10;99.90;;;;;;4836566;29;20297;-78
2021/01/06 17:45:47;;;;;;;1999.90;999.90;;;3.10;99.90;;;;;;4858106;29;20234;-77
2021/01/06 17:51:00;;;;;;;1999.90;999.90;;;3.10;99.90;;;;;;4849515;29;20221;-79
2021/01/06 17:53:36;;;;;;;1999.90;999.90;;;3.00;99.90;;;;;;4851089;29;20623;-73
2021/01/06 17:56:04;;;;;;;1999.90;999.90;;;3.00;99.90;;;;;;4852064;29;20276;-76
2021/01/06 17:58:31;;;;;;;1999.90;999.90;;;3.10;99.90;;;;;;4853196;29;20204;-74
2021/01/06 18:00:58;;;;;;;1999.90;999.90;;;3.00;99.90;;;;;;4851463;29;20225;-75